sensor_id;sensor_type;location;lat;lon;timestamp;P1;durP1;ratioP1;P2;durP2;ratioP2
38021;SDS011;23832;43.216;27.946;2023-03-13T07:05:43;151.60;;;141.60;;
38021;SDS011;23832;43.216;27.946;2023-03-13T07:07:45;150.23;;;140.20;;
38021;SDS011;23832;43.216;27.946;2023-03-13T07:09:47;153.70;;;143.57;;
38021;SDS011;23832;43.216;27.946;2023-03-13T07:11:49;151.13;;;140.98;;
38021;SDS011;23832;43.216;27.946;2023-03-13T07:13:53;152.30;;;142.38;;
38021;SDS011;23832;43.216;27.946;2023-03-13T07:15:58;151.52;;;141.25;;
38021;SDS011;23832;43.216;27.946;2023-03-13T07:18:00;152.18;;;142.48;;
38021;SDS011;23832;43.216;27.946;2023-03-13T07:20:04;149.52;;;140.10;;
38021;SDS011;23832;43.216;27.946;2023-03-13T07:22:09;152.57;;;142.88;;
38021;SDS011;23832;43.216;27.946;2023-03-13T07:24:11;150.18;;;140.68;;
38021;SDS011;23832;43.216;27.946;2023-03-13T07:26:14;149.93;;;140.27;;
38021;SDS011;23832;43.216;27.946;2023-03-13T07:28:16;153.02;;;143.05;;
38021;SDS011;23832;43.216;27.946;2023-03-13T07:30:18;148.38;;;138.57;;
38021;SDS011;23832;43.216;27.946;2023-03-13T07:32:21;148.65;;;139.27;;
38021;SDS011;23832;43.216;27.946;2023-03-13T07:34:23;151.30;;;141.65;;
38021;SDS011;23832;43.216;27.946;2023-03-13T07:36:27;149.55;;;139.98;;
38021;SDS011;23832;43.216;27.946;2023-03-13T07:38:29;147.95;;;138.82;;
38021;SDS011;23832;43.216;27.946;2023-03-13T07:40:32;144.98;;;135.93;;
38021;SDS011;23832;43.216;27.946;2023-03-13T07:42:34;147.48;;;138.38;;
38021;SDS011;23832;43.216;27.946;2023-03-13T07:44:36;150.18;;;140.77;;
38021;SDS011;23832;43.216;27.946;2023-03-13T07:46:38;150.43;;;140.80;;
38021;SDS011;23832;43.216;27.946;2023-03-13T07:48:40;147.68;;;138.40;;
38021;SDS011;23832;43.216;27.946;2023-03-13T07:50:44;149.57;;;139.70;;
38021;SDS011;23832;43.216;27.946;2023-03-13T07:52:48;145.75;;;136.63;;
38021;SDS011;23832;43.216;27.946;2023-03-13T07:54:50;148.00;;;138.80;;
38021;SDS011;23832;43.216;27.946;2023-03-13T07:56:53;147.90;;;138.52;;
38021;SDS011;23832;43.216;27.946;2023-03-13T07:58:55;145.68;;;136.77;;
38021;SDS011;23832;43.216;27.946;2023-03-13T08:00:57;142.75;;;133.88;;
38021;SDS011;23832;43.216;27.946;2023-03-13T08:02:59;141.52;;;133.13;;
38021;SDS011;23832;43.216;27.946;2023-03-13T08:05:00;143.27;;;134.82;;
38021;SDS011;23832;43.216;27.946;2023-03-13T08:07:06;141.27;;;132.80;;
38021;SDS011;23832;43.216;27.946;2023-03-13T08:09:10;141.82;;;133.27;;
38021;SDS011;23832;43.216;27.946;2023-03-13T08:11:12;141.65;;;133.18;;
38021;SDS011;23832;43.216;27.946;2023-03-13T08:13:16;142.00;;;133.50;;
38021;SDS011;23832;43.216;27.946;2023-03-13T08:15:18;145.65;;;137.07;;
38021;SDS011;23832;43.216;27.946;2023-03-13T08:17:27;142.15;;;133.75;;
38021;SDS011;23832;43.216;27.946;2023-03-13T08:19:32;144.07;;;135.05;;
38021;SDS011;23832;43.216;27.946;2023-03-13T08:21:35;140.82;;;132.43;;
38021;SDS011;23832;43.216;27.946;2023-03-13T08:23:38;141.98;;;133.48;;
38021;SDS011;23832;43.216;27.946;2023-03-13T08:25:42;137.68;;;129.68;;
38021;SDS011;23832;43.216;27.946;2023-03-13T08:27:45;144.30;;;135.40;;
38021;SDS011;23832;43.216;27.946;2023-03-13T08:29:47;141.73;;;133.32;;
38021;SDS011;23832;43.216;27.946;2023-03-13T08:31:49;141.35;;;132.88;;
38021;SDS011;23832;43.216;27.946;2023-03-13T08:33:51;141.32;;;132.90;;
38021;SDS011;23832;43.216;27.946;2023-03-13T08:35:54;141.43;;;133.02;;
38021;SDS011;23832;43.216;27.946;2023-03-13T08:37:55;142.00;;;133.60;;
38021;SDS011;23832;43.216;27.946;2023-03-13T08:39:58;142.65;;;133.88;;
38021;SDS011;23832;43.216;27.946;2023-03-13T08:42:01;142.90;;;134.13;;
38021;SDS011;23832;43.216;27.946;2023-03-13T08:44:04;140.75;;;132.32;;
38021;SDS011;23832;43.216;27.946;2023-03-13T08:46:06;141.55;;;132.93;;
38021;SDS011;23832;43.216;27.946;2023-03-13T08:48:08;139.70;;;131.27;;
38021;SDS011;23832;43.216;27.946;2023-03-13T08:50:10;140.15;;;131.90;;
38021;SDS011;23832;43.216;27.946;2023-03-13T08:52:12;140.20;;;131.70;;
38021;SDS011;23832;43.216;27.946;2023-03-13T08:54:14;139.38;;;130.88;;
38021;SDS011;23832;43.216;27.946;2023-03-13T08:56:16;138.65;;;130.18;;
38021;SDS011;23832;43.216;27.946;2023-03-13T08:58:21;139.70;;;131.52;;
38021;SDS011;23832;43.216;27.946;2023-03-13T09:00:27;138.60;;;130.38;;
38021;SDS011;23832;43.216;27.946;2023-03-13T09:02:29;136.82;;;128.75;;
38021;SDS011;23832;43.216;27.946;2023-03-13T09:04:31;133.38;;;125.43;;
38021;SDS011;23832;43.216;27.946;2023-03-13T09:06:33;137.98;;;129.88;;
38021;SDS011;23832;43.216;27.946;2023-03-13T09:08:37;138.48;;;130.23;;
38021;SDS011;23832;43.216;27.946;2023-03-13T09:10:40;136.48;;;128.38;;
38021;SDS011;23832;43.216;27.946;2023-03-13T09:12:42;138.52;;;130.45;;
38021;SDS011;23832;43.216;27.946;2023-03-13T09:14:48;138.38;;;130.27;;
38021;SDS011;23832;43.216;27.946;2023-03-13T09:16:50;136.45;;;128.38;;
38021;SDS011;23832;43.216;27.946;2023-03-13T09:18:52;138.02;;;129.90;;
38021;SDS011;23832;43.216;27.946;2023-03-13T09:20:54;143.25;;;134.73;;
38021;SDS011;23832;43.216;27.946;2023-03-13T09:22:57;140.68;;;132.38;;
38021;SDS011;23832;43.216;27.946;2023-03-13T09:24:59;139.15;;;130.95;;
38021;SDS011;23832;43.216;27.946;2023-03-13T09:27:01;136.05;;;128.00;;
38021;SDS011;23832;43.216;27.946;2023-03-13T09:29:03;139.50;;;130.77;;
38021;SDS011;23832;43.216;27.946;2023-03-13T09:31:07;134.75;;;126.93;;
38021;SDS011;23832;43.216;27.946;2023-03-13T09:33:10;135.68;;;127.68;;
38021;SDS011;23832;43.216;27.946;2023-03-13T09:35:12;140.63;;;132.23;;
38021;SDS011;23832;43.216;27.946;2023-03-13T09:37:14;134.68;;;126.88;;
38021;SDS011;23832;43.216;27.946;2023-03-13T09:39:16;139.63;;;131.18;;
38021;SDS011;23832;43.216;27.946;2023-03-13T09:41:22;135.43;;;127.40;;
38021;SDS011;23832;43.216;27.946;2023-03-13T09:43:29;134.37;;;126.07;;
38021;SDS011;23832;43.216;27.946;2023-03-13T09:45:41;139.52;;;131.15;;
38021;SDS011;23832;43.216;27.946;2023-03-13T09:47:47;138.95;;;130.25;;
38021;SDS011;23832;43.216;27.946;2023-03-13T09:49:53;137.57;;;129.38;;
38021;SDS011;23832;43.216;27.946;2023-03-13T09:52:03;137.87;;;129.53;;
38021;SDS011;23832;43.216;27.946;2023-03-13T09:54:21;137.43;;;129.30;;
38021;SDS011;23832;43.216;27.946;2023-03-13T09:56:30;138.65;;;130.23;;
38021;SDS011;23832;43.216;27.946;2023-03-13T09:58:38;134.13;;;126.07;;
38021;SDS011;23832;43.216;27.946;2023-03-13T10:00:45;134.18;;;126.18;;
38021;SDS011;23832;43.216;27.946;2023-03-13T10:02:55;139.02;;;130.73;;
38021;SDS011;23832;43.216;27.946;2023-03-13T10:05:07;132.95;;;125.15;;
38021;SDS011;23832;43.216;27.946;2023-03-13T10:07:14;136.30;;;128.45;;
38021;SDS011;23832;43.216;27.946;2023-03-13T10:09:16;135.90;;;127.78;;
38021;SDS011;23832;43.216;27.946;2023-03-13T10:11:22;135.75;;;127.82;;
38021;SDS011;23832;43.216;27.946;2023-03-13T10:13:30;137.07;;;128.98;;
38021;SDS011;23832;43.216;27.946;2023-03-13T10:15:38;133.98;;;126.10;;
38021;SDS011;23832;43.216;27.946;2023-03-13T10:17:47;133.85;;;125.70;;
38021;SDS011;23832;43.216;27.946;2023-03-13T10:19:53;135.63;;;127.63;;
38021;SDS011;23832;43.216;27.946;2023-03-13T10:21:57;134.93;;;127.10;;
38021;SDS011;23832;43.216;27.946;2023-03-13T10:24:05;138.02;;;129.40;;
38021;SDS011;23832;43.216;27.946;2023-03-13T10:26:20;135.90;;;127.97;;
38021;SDS011;23832;43.216;27.946;2023-03-13T10:28:28;135.60;;;127.53;;
38021;SDS011;23832;43.216;27.946;2023-03-13T10:30:31;132.57;;;124.85;;
38021;SDS011;23832;43.216;27.946;2023-03-13T10:32:35;133.77;;;125.97;;
38021;SDS011;23832;43.216;27.946;2023-03-13T10:34:46;134.90;;;126.75;;
38021;SDS011;23832;43.216;27.946;2023-03-13T10:36:58;135.77;;;127.78;;
38021;SDS011;23832;43.216;27.946;2023-03-13T10:39:02;134.55;;;126.50;;
38021;SDS011;23832;43.216;27.946;2023-03-13T10:41:17;137.98;;;129.70;;
38021;SDS011;23832;43.216;27.946;2023-03-13T10:43:49;132.65;;;124.80;;
38021;SDS011;23832;43.216;27.946;2023-03-13T10:45:52;134.88;;;126.60;;
38021;SDS011;23832;43.216;27.946;2023-03-13T10:48:01;134.90;;;126.65;;
38021;SDS011;23832;43.216;27.946;2023-03-13T10:52:21;136.73;;;128.60;;
38021;SDS011;23832;43.216;27.946;2023-03-13T10:54:31;134.25;;;126.32;;
38021;SDS011;23832;43.216;27.946;2023-03-13T10:56:34;135.60;;;127.57;;
38021;SDS011;23832;43.216;27.946;2023-03-13T10:58:40;132.43;;;124.47;;
38021;SDS011;23832;43.216;27.946;2023-03-13T11:00:43;134.48;;;126.45;;
38021;SDS011;23832;43.216;27.946;2023-03-13T11:02:46;131.63;;;124.07;;
38021;SDS011;23832;43.216;27.946;2023-03-13T11:04:49;136.80;;;128.50;;
38021;SDS011;23832;43.216;27.946;2023-03-13T11:06:54;135.23;;;127.43;;
38021;SDS011;23832;43.216;27.946;2023-03-13T11:09:04;135.57;;;127.15;;
38021;SDS011;23832;43.216;27.946;2023-03-13T11:11:16;135.10;;;127.05;;
38021;SDS011;23832;43.216;27.946;2023-03-13T11:13:25;133.93;;;125.70;;
38021;SDS011;23832;43.216;27.946;2023-03-13T11:15:31;132.55;;;124.65;;
38021;SDS011;23832;43.216;27.946;2023-03-13T11:17:38;129.23;;;121.67;;
38021;SDS011;23832;43.216;27.946;2023-03-13T11:22:16;129.55;;;121.75;;
38021;SDS011;23832;43.216;27.946;2023-03-13T11:24:33;131.63;;;123.25;;
38021;SDS011;23832;43.216;27.946;2023-03-13T11:26:45;134.13;;;125.65;;
38021;SDS011;23832;43.216;27.946;2023-03-13T11:28:54;131.32;;;123.53;;
38021;SDS011;23832;43.216;27.946;2023-03-13T11:31:02;132.13;;;124.22;;
38021;SDS011;23832;43.216;27.946;2023-03-13T11:33:11;134.95;;;126.85;;
38021;SDS011;23832;43.216;27.946;2023-03-13T11:35:30;135.02;;;127.15;;
38021;SDS011;23832;43.216;27.946;2023-03-13T11:37:41;135.10;;;126.90;;
38021;SDS011;23832;43.216;27.946;2023-03-13T11:39:49;131.82;;;123.90;;
38021;SDS011;23832;43.216;27.946;2023-03-13T11:41:58;130.60;;;122.72;;
38021;SDS011;23832;43.216;27.946;2023-03-13T11:44:08;133.18;;;125.40;;
38021;SDS011;23832;43.216;27.946;2023-03-13T11:46:27;134.07;;;126.22;;
38021;SDS011;23832;43.216;27.946;2023-03-13T11:51:16;130.98;;;123.13;;
38021;SDS011;23832;43.216;27.946;2023-03-13T11:53:26;133.27;;;124.95;;
38021;SDS011;23832;43.216;27.946;2023-03-13T11:55:40;130.98;;;123.15;;
38021;SDS011;23832;43.216;27.946;2023-03-13T11:57:54;132.35;;;124.55;;
38021;SDS011;23832;43.216;27.946;2023-03-13T12:00:16;132.70;;;124.90;;
38021;SDS011;23832;43.216;27.946;2023-03-13T12:02:24;134.13;;;126.32;;
38021;SDS011;23832;43.216;27.946;2023-03-13T12:04:30;132.50;;;124.70;;
38021;SDS011;23832;43.216;27.946;2023-03-13T12:06:39;134.10;;;126.38;;
38021;SDS011;23832;43.216;27.946;2023-03-13T12:08:45;132.27;;;124.45;;
38021;SDS011;23832;43.216;27.946;2023-03-13T12:10:57;133.30;;;125.07;;
38021;SDS011;23832;43.216;27.946;2023-03-13T12:13:09;135.23;;;127.28;;
38021;SDS011;23832;43.216;27.946;2023-03-13T12:15:18;137.50;;;129.52;;
38021;SDS011;23832;43.216;27.946;2023-03-13T12:17:25;131.15;;;123.47;;
38021;SDS011;23832;43.216;27.946;2023-03-13T12:19:35;136.00;;;127.90;;
38021;SDS011;23832;43.216;27.946;2023-03-13T12:21:41;134.60;;;126.65;;
38021;SDS011;23832;43.216;27.946;2023-03-13T12:23:49;135.50;;;127.30;;
38021;SDS011;23832;43.216;27.946;2023-03-13T12:26:01;135.90;;;127.82;;
38021;SDS011;23832;43.216;27.946;2023-03-13T12:28:10;134.48;;;126.68;;
38021;SDS011;23832;43.216;27.946;2023-03-13T12:30:24;135.98;;;127.80;;
38021;SDS011;23832;43.216;27.946;2023-03-13T12:32:36;133.07;;;125.47;;
38021;SDS011;23832;43.216;27.946;2023-03-13T12:34:55;133.05;;;125.22;;
38021;SDS011;23832;43.216;27.946;2023-03-13T12:37:02;132.80;;;125.05;;
38021;SDS011;23832;43.216;27.946;2023-03-13T12:39:14;131.68;;;124.07;;
38021;SDS011;23832;43.216;27.946;2023-03-13T12:41:24;133.05;;;125.30;;
38021;SDS011;23832;43.216;27.946;2023-03-13T12:43:31;136.82;;;128.93;;
38021;SDS011;23832;43.216;27.946;2023-03-13T12:45:36;134.90;;;126.95;;
38021;SDS011;23832;43.216;27.946;2023-03-13T12:47:58;130.95;;;123.15;;
38021;SDS011;23832;43.216;27.946;2023-03-13T12:50:21;131.50;;;123.70;;
38021;SDS011;23832;43.216;27.946;2023-03-13T12:52:45;127.53;;;120.03;;
38021;SDS011;23832;43.216;27.946;2023-03-13T12:55:01;132.10;;;124.38;;
38021;SDS011;23832;43.216;27.946;2023-03-13T12:57:32;132.57;;;124.78;;
38021;SDS011;23832;43.216;27.946;2023-03-13T12:59:57;133.10;;;125.25;;
38021;SDS011;23832;43.216;27.946;2023-03-13T13:02:12;130.98;;;123.28;;
38021;SDS011;23832;43.216;27.946;2023-03-13T13:04:17;129.82;;;122.13;;
38021;SDS011;23832;43.216;27.946;2023-03-13T13:06:21;133.30;;;125.50;;
38021;SDS011;23832;43.216;27.946;2023-03-13T13:08:34;132.20;;;124.40;;
38021;SDS011;23832;43.216;27.946;2023-03-13T13:10:38;132.23;;;124.63;;
38021;SDS011;23832;43.216;27.946;2023-03-13T13:12:43;134.32;;;126.45;;
38021;SDS011;23832;43.216;27.946;2023-03-13T13:17:18;134.55;;;126.70;;
38021;SDS011;23832;43.216;27.946;2023-03-13T13:19:42;137.75;;;129.75;;
38021;SDS011;23832;43.216;27.946;2023-03-13T13:21:45;130.07;;;122.57;;
38021;SDS011;23832;43.216;27.946;2023-03-13T13:23:48;132.30;;;124.57;;
38021;SDS011;23832;43.216;27.946;2023-03-13T13:25:54;136.27;;;128.07;;
38021;SDS011;23832;43.216;27.946;2023-03-13T13:28:23;137.15;;;129.25;;
38021;SDS011;23832;43.216;27.946;2023-03-13T13:30:35;131.90;;;124.28;;
38021;SDS011;23832;43.216;27.946;2023-03-13T13:32:44;135.77;;;127.93;;
38021;SDS011;23832;43.216;27.946;2023-03-13T13:34:53;134.15;;;126.30;;
38021;SDS011;23832;43.216;27.946;2023-03-13T13:36:56;132.75;;;124.95;;
38021;SDS011;23832;43.216;27.946;2023-03-13T13:39:00;132.55;;;124.78;;
38021;SDS011;23832;43.216;27.946;2023-03-13T13:41:03;131.55;;;123.70;;
38021;SDS011;23832;43.216;27.946;2023-03-13T13:43:26;133.95;;;126.10;;
38021;SDS011;23832;43.216;27.946;2023-03-13T13:45:32;135.07;;;127.18;;
38021;SDS011;23832;43.216;27.946;2023-03-13T13:47:36;132.98;;;125.28;;
38021;SDS011;23832;43.216;27.946;2023-03-13T13:49:50;136.05;;;128.10;;
38021;SDS011;23832;43.216;27.946;2023-03-13T13:56:55;136.30;;;128.15;;
38021;SDS011;23832;43.216;27.946;2023-03-13T13:59:01;136.82;;;128.70;;
38021;SDS011;23832;43.216;27.946;2023-03-13T14:01:13;136.90;;;128.95;;
38021;SDS011;23832;43.216;27.946;2023-03-13T14:03:18;137.90;;;129.57;;
38021;SDS011;23832;43.216;27.946;2023-03-13T14:05:24;138.63;;;130.45;;
38021;SDS011;23832;43.216;27.946;2023-03-13T14:07:28;132.73;;;124.95;;
38021;SDS011;23832;43.216;27.946;2023-03-13T14:09:42;136.88;;;128.77;;
38021;SDS011;23832;43.216;27.946;2023-03-13T14:11:50;137.40;;;129.20;;
38021;SDS011;23832;43.216;27.946;2023-03-13T14:16:23;139.98;;;131.70;;
38021;SDS011;23832;43.216;27.946;2023-03-13T14:18:27;137.90;;;129.70;;
38021;SDS011;23832;43.216;27.946;2023-03-13T14:20:34;137.30;;;129.20;;
38021;SDS011;23832;43.216;27.946;2023-03-13T14:22:44;136.40;;;128.30;;
38021;SDS011;23832;43.216;27.946;2023-03-13T14:24:55;137.23;;;129.18;;
38021;SDS011;23832;43.216;27.946;2023-03-13T14:26:58;137.82;;;129.63;;
38021;SDS011;23832;43.216;27.946;2023-03-13T14:29:01;136.80;;;128.85;;
38021;SDS011;23832;43.216;27.946;2023-03-13T14:31:03;135.57;;;127.50;;
38021;SDS011;23832;43.216;27.946;2023-03-13T14:33:06;139.00;;;130.85;;
38021;SDS011;23832;43.216;27.946;2023-03-13T14:35:10;138.45;;;130.15;;
38021;SDS011;23832;43.216;27.946;2023-03-13T14:39:35;136.10;;;128.20;;
38021;SDS011;23832;43.216;27.946;2023-03-13T14:41:39;138.57;;;130.27;;
38021;SDS011;23832;43.216;27.946;2023-03-13T14:43:45;143.30;;;134.70;;
38021;SDS011;23832;43.216;27.946;2023-03-13T14:45:47;139.35;;;131.05;;
38021;SDS011;23832;43.216;27.946;2023-03-13T14:47:50;141.50;;;133.00;;
38021;SDS011;23832;43.216;27.946;2023-03-13T14:49:55;137.65;;;129.48;;
38021;SDS011;23832;43.216;27.946;2023-03-13T14:52:00;141.70;;;133.20;;
38021;SDS011;23832;43.216;27.946;2023-03-13T14:54:05;140.45;;;132.05;;
38021;SDS011;23832;43.216;27.946;2023-03-13T14:58:33;138.18;;;130.02;;
38021;SDS011;23832;43.216;27.946;2023-03-13T15:00:37;141.27;;;132.77;;
38021;SDS011;23832;43.216;27.946;2023-03-13T15:02:41;143.43;;;134.88;;
38021;SDS011;23832;43.216;27.946;2023-03-13T15:04:53;137.95;;;129.77;;
38021;SDS011;23832;43.216;27.946;2023-03-13T15:07:00;140.30;;;131.80;;
38021;SDS011;23832;43.216;27.946;2023-03-13T15:09:13;139.63;;;131.35;;
38021;SDS011;23832;43.216;27.946;2023-03-13T15:11:24;143.13;;;134.65;;
38021;SDS011;23832;43.216;27.946;2023-03-13T15:13:32;140.02;;;131.77;;
38021;SDS011;23832;43.216;27.946;2023-03-13T15:15:36;138.32;;;130.02;;
38021;SDS011;23832;43.216;27.946;2023-03-13T15:17:37;140.60;;;132.27;;
38021;SDS011;23832;43.216;27.946;2023-03-13T15:19:40;140.27;;;131.68;;
38021;SDS011;23832;43.216;27.946;2023-03-13T15:21:43;137.85;;;129.65;;
38021;SDS011;23832;43.216;27.946;2023-03-13T15:23:52;140.82;;;132.43;;
38021;SDS011;23832;43.216;27.946;2023-03-13T15:25:56;156.70;;;146.20;;
38021;SDS011;23832;43.216;27.946;2023-03-13T15:27:58;161.65;;;150.45;;
38021;SDS011;23832;43.216;27.946;2023-03-13T15:30:00;182.40;;;167.32;;
38021;SDS011;23832;43.216;27.946;2023-03-13T15:32:03;148.00;;;138.40;;
38021;SDS011;23832;43.216;27.946;2023-03-13T15:34:05;156.95;;;145.50;;
38021;SDS011;23832;43.216;27.946;2023-03-13T15:36:11;154.23;;;143.32;;
38021;SDS011;23832;43.216;27.946;2023-03-13T15:38:15;152.98;;;141.18;;
38021;SDS011;23832;43.216;27.946;2023-03-13T15:40:19;163.35;;;151.23;;
38021;SDS011;23832;43.216;27.946;2023-03-13T15:42:23;152.57;;;142.18;;
38021;SDS011;23832;43.216;27.946;2023-03-13T15:44:25;151.85;;;141.57;;
38021;SDS011;23832;43.216;27.946;2023-03-13T15:46:27;144.52;;;135.27;;
38021;SDS011;23832;43.216;27.946;2023-03-13T15:48:30;142.15;;;133.52;;
38021;SDS011;23832;43.216;27.946;2023-03-13T15:50:32;142.82;;;134.02;;
38021;SDS011;23832;43.216;27.946;2023-03-13T15:52:34;144.82;;;135.80;;
38021;SDS011;23832;43.216;27.946;2023-03-13T15:54:37;145.15;;;136.23;;
38021;SDS011;23832;43.216;27.946;2023-03-13T15:56:39;144.52;;;135.27;;
38021;SDS011;23832;43.216;27.946;2023-03-13T15:58:42;144.77;;;135.57;;
38021;SDS011;23832;43.216;27.946;2023-03-13T16:00:45;140.73;;;132.18;;
38021;SDS011;23832;43.216;27.946;2023-03-13T16:02:48;143.30;;;134.40;;
38021;SDS011;23832;43.216;27.946;2023-03-13T16:04:50;143.20;;;134.65;;
38021;SDS011;23832;43.216;27.946;2023-03-13T16:06:55;142.50;;;133.98;;
38021;SDS011;23832;43.216;27.946;2023-03-13T16:08:57;146.05;;;137.07;;
38021;SDS011;23832;43.216;27.946;2023-03-13T16:11:02;141.68;;;132.48;;
38021;SDS011;23832;43.216;27.946;2023-03-13T16:13:05;142.80;;;133.57;;
38021;SDS011;23832;43.216;27.946;2023-03-13T16:15:08;143.85;;;135.30;;
38021;SDS011;23832;43.216;27.946;2023-03-13T16:17:12;141.48;;;132.93;;
38021;SDS011;23832;43.216;27.946;2023-03-13T16:19:15;144.88;;;136.18;;
38021;SDS011;23832;43.216;27.946;2023-03-13T16:21:18;143.40;;;134.60;;
38021;SDS011;23832;43.216;27.946;2023-03-13T16:23:21;146.80;;;137.68;;
38021;SDS011;23832;43.216;27.946;2023-03-13T16:25:23;146.75;;;137.60;;
38021;SDS011;23832;43.216;27.946;2023-03-13T16:27:27;145.73;;;136.95;;
38021;SDS011;23832;43.216;27.946;2023-03-13T16:29:29;145.15;;;136.27;;
38021;SDS011;23832;43.216;27.946;2023-03-13T16:31:31;143.50;;;134.77;;
38021;SDS011;23832;43.216;27.946;2023-03-13T16:33:33;142.38;;;133.73;;
38021;SDS011;23832;43.216;27.946;2023-03-13T16:35:36;145.18;;;136.48;;
38021;SDS011;23832;43.216;27.946;2023-03-13T16:37:39;146.27;;;137.05;;
38021;SDS011;23832;43.216;27.946;2023-03-13T16:39:41;146.32;;;137.02;;
38021;SDS011;23832;43.216;27.946;2023-03-13T16:41:43;146.77;;;137.60;;
38021;SDS011;23832;43.216;27.946;2023-03-13T16:43:47;150.05;;;140.65;;
38021;SDS011;23832;43.216;27.946;2023-03-13T16:45:50;147.23;;;138.05;;
38021;SDS011;23832;43.216;27.946;2023-03-13T16:47:52;149.85;;;140.50;;
38021;SDS011;23832;43.216;27.946;2023-03-13T16:49:55;147.82;;;138.45;;
38021;SDS011;23832;43.216;27.946;2023-03-13T16:51:57;151.18;;;141.82;;
38021;SDS011;23832;43.216;27.946;2023-03-13T16:53:59;147.98;;;138.85;;
38021;SDS011;23832;43.216;27.946;2023-03-13T16:56:01;149.63;;;140.27;;
38021;SDS011;23832;43.216;27.946;2023-03-13T16:58:03;147.18;;;137.90;;
38021;SDS011;23832;43.216;27.946;2023-03-13T17:00:15;147.35;;;138.45;;
38021;SDS011;23832;43.216;27.946;2023-03-13T17:02:19;147.45;;;138.45;;
38021;SDS011;23832;43.216;27.946;2023-03-13T17:04:21;146.35;;;137.30;;
38021;SDS011;23832;43.216;27.946;2023-03-13T17:06:23;149.68;;;140.48;;
38021;SDS011;23832;43.216;27.946;2023-03-13T17:08:27;148.82;;;139.13;;
38021;SDS011;23832;43.216;27.946;2023-03-13T17:10:30;148.20;;;139.13;;
38021;SDS011;23832;43.216;27.946;2023-03-13T17:12:33;148.95;;;139.70;;
38021;SDS011;23832;43.216;27.946;2023-03-13T17:14:35;150.00;;;140.55;;
38021;SDS011;23832;43.216;27.946;2023-03-13T17:16:40;148.63;;;139.43;;
38021;SDS011;23832;43.216;27.946;2023-03-13T17:18:44;152.85;;;143.63;;
38021;SDS011;23832;43.216;27.946;2023-03-13T17:20:47;147.38;;;138.32;;
38021;SDS011;23832;43.216;27.946;2023-03-13T17:22:50;146.68;;;137.95;;
38021;SDS011;23832;43.216;27.946;2023-03-13T17:24:52;149.85;;;140.68;;
38021;SDS011;23832;43.216;27.946;2023-03-13T17:26:54;150.35;;;141.02;;
38021;SDS011;23832;43.216;27.946;2023-03-13T17:28:57;151.30;;;141.75;;
38021;SDS011;23832;43.216;27.946;2023-03-13T17:30:59;149.50;;;140.23;;
38021;SDS011;23832;43.216;27.946;2023-03-13T17:33:02;149.57;;;140.43;;
38021;SDS011;23832;43.216;27.946;2023-03-13T17:35:05;152.57;;;143.15;;
38021;SDS011;23832;43.216;27.946;2023-03-13T17:37:10;153.05;;;143.77;;
38021;SDS011;23832;43.216;27.946;2023-03-13T17:39:15;149.60;;;140.65;;
38021;SDS011;23832;43.216;27.946;2023-03-13T17:41:21;153.27;;;143.77;;
38021;SDS011;23832;43.216;27.946;2023-03-13T17:43:25;150.65;;;141.25;;
38021;SDS011;23832;43.216;27.946;2023-03-13T17:45:27;152.15;;;142.70;;
38021;SDS011;23832;43.216;27.946;2023-03-13T17:47:35;148.27;;;138.90;;
38021;SDS011;23832;43.216;27.946;2023-03-13T17:49:39;153.30;;;143.60;;
38021;SDS011;23832;43.216;27.946;2023-03-13T17:51:42;152.73;;;143.25;;
38021;SDS011;23832;43.216;27.946;2023-03-13T17:53:45;153.23;;;142.57;;
38021;SDS011;23832;43.216;27.946;2023-03-13T17:55:48;150.43;;;140.30;;
38021;SDS011;23832;43.216;27.946;2023-03-13T17:57:49;150.80;;;140.95;;
38021;SDS011;23832;43.216;27.946;2023-03-13T17:59:52;159.00;;;148.05;;
38021;SDS011;23832;43.216;27.946;2023-03-13T18:01:54;207.77;;;191.73;;
38021;SDS011;23832;43.216;27.946;2023-03-13T18:03:56;201.23;;;185.90;;
38021;SDS011;23832;43.216;27.946;2023-03-13T18:06:00;172.85;;;160.98;;
38021;SDS011;23832;43.216;27.946;2023-03-13T18:08:02;163.35;;;152.13;;
38021;SDS011;23832;43.216;27.946;2023-03-13T18:10:05;152.60;;;142.07;;
38021;SDS011;23832;43.216;27.946;2023-03-13T18:12:13;149.93;;;140.10;;
38021;SDS011;23832;43.216;27.946;2023-03-13T18:14:15;146.88;;;137.43;;
38021;SDS011;23832;43.216;27.946;2023-03-13T18:16:26;146.90;;;137.40;;
38021;SDS011;23832;43.216;27.946;2023-03-13T18:18:38;148.40;;;139.38;;
38021;SDS011;23832;43.216;27.946;2023-03-13T18:20:41;154.70;;;144.82;;
38021;SDS011;23832;43.216;27.946;2023-03-13T18:22:45;172.95;;;159.85;;
38021;SDS011;23832;43.216;27.946;2023-03-13T18:24:48;234.88;;;214.07;;
38021;SDS011;23832;43.216;27.946;2023-03-13T18:26:50;225.73;;;206.57;;
38021;SDS011;23832;43.216;27.946;2023-03-13T18:28:52;193.73;;;178.63;;
38021;SDS011;23832;43.216;27.946;2023-03-13T18:31:00;162.10;;;150.63;;
38021;SDS011;23832;43.216;27.946;2023-03-13T18:33:05;156.07;;;145.38;;
38021;SDS011;23832;43.216;27.946;2023-03-13T18:35:07;154.95;;;144.05;;
38021;SDS011;23832;43.216;27.946;2023-03-13T18:37:14;153.40;;;143.15;;
38021;SDS011;23832;43.216;27.946;2023-03-13T18:39:22;152.65;;;142.65;;
38021;SDS011;23832;43.216;27.946;2023-03-13T18:41:24;155.38;;;145.35;;
38021;SDS011;23832;43.216;27.946;2023-03-13T18:43:26;155.93;;;145.73;;
38021;SDS011;23832;43.216;27.946;2023-03-13T18:45:28;155.32;;;145.00;;
38021;SDS011;23832;43.216;27.946;2023-03-13T18:47:30;151.93;;;141.98;;
38021;SDS011;23832;43.216;27.946;2023-03-13T18:49:33;150.30;;;140.70;;
38021;SDS011;23832;43.216;27.946;2023-03-13T18:51:37;152.05;;;142.50;;
38021;SDS011;23832;43.216;27.946;2023-03-13T18:53:40;154.30;;;144.55;;
38021;SDS011;23832;43.216;27.946;2023-03-13T18:55:43;153.73;;;143.90;;
38021;SDS011;23832;43.216;27.946;2023-03-13T18:57:46;148.43;;;138.90;;
38021;SDS011;23832;43.216;27.946;2023-03-13T18:59:49;240.77;;;220.00;;
38021;SDS011;23832;43.216;27.946;2023-03-13T19:01:52;216.80;;;198.70;;
38021;SDS011;23832;43.216;27.946;2023-03-13T19:03:54;181.55;;;168.18;;
38021;SDS011;23832;43.216;27.946;2023-03-13T19:05:57;159.52;;;149.13;;
38021;SDS011;23832;43.216;27.946;2023-03-13T19:08:00;152.98;;;143.35;;
38021;SDS011;23832;43.216;27.946;2023-03-13T19:10:03;155.90;;;146.23;;